Nyk Constellation — V7NP4 — position and weather

sailwx.info

Track history (hours):
 
Tides and Currents Weather Stations Pressure Air Temp Water Temp Dewpoint Dewpoint Depression Visibility Wind Speed Wind Dir Waves Ship Positions

Nyk Constellation

Last reported at 2016-Jun-24 01:33 UTC. Time now 2016-Jun-25 00:01 UTC.
Position N 09°48' W 079°38'.

Length 294 m; draft 11.2 m.

Type: Cargo ship. MMSI: 538002992.

Date/timePositionNaut miles runAvg speedWind from/ knotsBaromVisibWave heightAir tempDewpointWater temp
2016-Jun-24 01:33N 09°48' W 079°38'1413.7
2016-Jun-24 00:33N 09°37' W 079°45'1010.3
2016-Jun-23 23:33N 09°28' W 079°51'7 7.1
2016-Jun-23 22:34N 09°22' W 079°53'0 0.1
2016-Jun-23 21:29N 09°21' W 079°53'0 0.0
2016-Jun-23 20:29N 09°21' W 079°53'0 0.0
2016-Jun-23 19:32N 09°21' W 079°53'0 0.0
2016-Jun-23 18:31N 09°21' W 079°53'0 0.0
2016-Jun-23 17:31N 09°21' W 079°53'0 0.0
2016-Jun-23 16:32N 09°21' W 079°53'0 0.0
2016-Jun-23 15:31N 09°21' W 079°53'0 0.0
2016-Jun-23 14:31N 09°21' W 079°53'0 0.0
2016-Jun-23 13:31N 09°21' W 079°53'0 0.3
2016-Jun-23 12:33N 09°22' W 079°53'4 3.6
2016-Jun-23 11:33N 09°25' W 079°54'2 1.6
2016-Jun-23 10:33N 09°27' W 079°53'0 0.5
2016-Jun-23 09:33N 09°27' W 079°53'0 0.0
2016-Jun-23 08:33N 09°27' W 079°53'0 0.0
2016-Jun-23 07:33N 09°27' W 079°53'0 0.1
2016-Jun-23 05:33N 09°27' W 079°53'0 0.0
2016-Jun-23 04:33N 09°27' W 079°53'0 0.0
2016-Jun-23 03:34N 09°27' W 079°53'0 0.0
2016-Jun-23 02:33N 09°27' W 079°53'0 0.0
2016-Jun-23 01:33N 09°27' W 079°53'0 0.0
2016-Jun-23 00:30N 09°27' W 079°53'0 0.0
2016-Jun-22 23:33N 09°27' W 079°53'0 0.0
2016-Jun-22 22:30N 09°27' W 079°53'3 3.4
2016-Jun-22 21:33N 09°24' W 079°55'7 7.4
2016-Jun-22 20:34N 09°17' W 079°55'1 0.7
2016-Jun-22 19:33N 09°16' W 079°55'1 0.8
2016-Jun-22 18:33N 09°16' W 079°55'4 4.1
2016-Jun-22 17:33N 09°12' W 079°54'10 9.5
2016-Jun-22 16:32N 09°07' W 079°45'7 7.3
2016-Jun-22 15:33N 09°03' W 079°39'3 3.2
2016-Jun-22 14:32N 09°01' W 079°37'  
2016-Jun-15 08:19N 32°08' W 117°35'1317.3
2016-Jun-15 07:34N 32°21' W 117°41'1717.5
2016-Jun-15 06:34N 32°37' W 117°48'1717.3
2016-Jun-15 05:34N 32°54' W 117°52'1716.7
2016-Jun-15 04:34N 33°08' W 118°02'1515.3
2016-Jun-15 03:33N 33°23' W 118°08'1111.4
2016-Jun-15 02:33N 33°34' W 118°13'10 9.7
2016-Jun-15 01:33N 33°43' W 118°16'3 2.6
2016-Jun-15 00:32N 33°46' W 118°15'0 0.0
2016-Jun-14 23:32N 33°46' W 118°15'0 0.0
2016-Jun-14 22:32N 33°46' W 118°15'0 0.0
2016-Jun-14 21:32N 33°46' W 118°15'0 0.0
2016-Jun-14 20:32N 33°46' W 118°15'0 0.0
2016-Jun-14 19:32N 33°46' W 118°15'0 0.0
2016-Jun-14 18:32N 33°46' W 118°15'0 0.0
2016-Jun-14 17:32N 33°46' W 118°15'0 0.0
2016-Jun-14 16:32N 33°46' W 118°15'0 0.0
2016-Jun-14 15:32N 33°46' W 118°15'0 0.0
2016-Jun-14 14:32N 33°46' W 118°15'2 1.8
2016-Jun-14 13:33N 33°44' W 118°17'6 6.2
2016-Jun-14 12:33N 33°38' W 118°14'6 6.1
2016-Jun-14 11:33N 33°36' W 118°20'9 8.6
2016-Jun-14 10:30N 33°40' W 118°30'9 9.0
2016-Jun-14 09:32N 33°44' W 118°39'10717.6
2016-Jun-14 03:26N 34°21' W 120°41'2020.5
2016-Jun-14 02:28N 34°27' W 121°03'  
Track history (hours):
 
Tides and Currents Weather Stations Pressure Air Temp Water Temp Dewpoint Dewpoint Depression Visibility Wind Speed Wind Dir Waves Ship Positions

Nyk Constellation

Last reported at 2016-Jun-24 01:33 UTC. Time now 2016-Jun-25 00:01 UTC.
Position N 09°48' W 079°38'.

Length 294 m; draft 11.2 m.

Type: Cargo ship. MMSI: 538002992.

Date/timePositionNaut miles runAvg speedWind from/ knotsBaromVisibWave heightAir tempDewpointWater temp
2016-Jun-24 01:33N 09°48' W 079°38'1413.7
2016-Jun-24 00:33N 09°37' W 079°45'1010.3
2016-Jun-23 23:33N 09°28' W 079°51'7 7.1
2016-Jun-23 22:34N 09°22' W 079°53'0 0.1
2016-Jun-23 21:29N 09°21' W 079°53'0 0.0
2016-Jun-23 20:29N 09°21' W 079°53'0 0.0
2016-Jun-23 19:32N 09°21' W 079°53'0 0.0
2016-Jun-23 18:31N 09°21' W 079°53'0 0.0
2016-Jun-23 17:31N 09°21' W 079°53'0 0.0
2016-Jun-23 16:32N 09°21' W 079°53'0 0.0
2016-Jun-23 15:31N 09°21' W 079°53'0 0.0
2016-Jun-23 14:31N 09°21' W 079°53'0 0.0
2016-Jun-23 13:31N 09°21' W 079°53'0 0.3
2016-Jun-23 12:33N 09°22' W 079°53'4 3.6
2016-Jun-23 11:33N 09°25' W 079°54'2 1.6
2016-Jun-23 10:33N 09°27' W 079°53'0 0.5
2016-Jun-23 09:33N 09°27' W 079°53'0 0.0
2016-Jun-23 08:33N 09°27' W 079°53'0 0.0
2016-Jun-23 07:33N 09°27' W 079°53'0 0.1
2016-Jun-23 05:33N 09°27' W 079°53'0 0.0
2016-Jun-23 04:33N 09°27' W 079°53'0 0.0
2016-Jun-23 03:34N 09°27' W 079°53'0 0.0
2016-Jun-23 02:33N 09°27' W 079°53'0 0.0
2016-Jun-23 01:33N 09°27' W 079°53'0 0.0
2016-Jun-23 00:30N 09°27' W 079°53'0 0.0
2016-Jun-22 23:33N 09°27' W 079°53'0 0.0
2016-Jun-22 22:30N 09°27' W 079°53'3 3.4
2016-Jun-22 21:33N 09°24' W 079°55'7 7.4
2016-Jun-22 20:34N 09°17' W 079°55'1 0.7
2016-Jun-22 19:33N 09°16' W 079°55'1 0.8
2016-Jun-22 18:33N 09°16' W 079°55'4 4.1
2016-Jun-22 17:33N 09°12' W 079°54'10 9.5
2016-Jun-22 16:32N 09°07' W 079°45'7 7.3
2016-Jun-22 15:33N 09°03' W 079°39'3 3.2
2016-Jun-22 14:32N 09°01' W 079°37'  
2016-Jun-15 08:19N 32°08' W 117°35'1317.3
2016-Jun-15 07:34N 32°21' W 117°41'1717.5
2016-Jun-15 06:34N 32°37' W 117°48'1717.3
2016-Jun-15 05:34N 32°54' W 117°52'1716.7
2016-Jun-15 04:34N 33°08' W 118°02'1515.3
2016-Jun-15 03:33N 33°23' W 118°08'1111.4
2016-Jun-15 02:33N 33°34' W 118°13'10 9.7
2016-Jun-15 01:33N 33°43' W 118°16'3 2.6
2016-Jun-15 00:32N 33°46' W 118°15'0 0.0
2016-Jun-14 23:32N 33°46' W 118°15'0 0.0
2016-Jun-14 22:32N 33°46' W 118°15'0 0.0
2016-Jun-14 21:32N 33°46' W 118°15'0 0.0
2016-Jun-14 20:32N 33°46' W 118°15'0 0.0
2016-Jun-14 19:32N 33°46' W 118°15'0 0.0
2016-Jun-14 18:32N 33°46' W 118°15'0 0.0
2016-Jun-14 17:32N 33°46' W 118°15'0 0.0
2016-Jun-14 16:32N 33°46' W 118°15'0 0.0
2016-Jun-14 15:32N 33°46' W 118°15'0 0.0
2016-Jun-14 14:32N 33°46' W 118°15'2 1.8
2016-Jun-14 13:33N 33°44' W 118°17'6 6.2
2016-Jun-14 12:33N 33°38' W 118°14'6 6.1
2016-Jun-14 11:33N 33°36' W 118°20'9 8.6
2016-Jun-14 10:30N 33°40' W 118°30'9 9.0
2016-Jun-14 09:32N 33°44' W 118°39'10717.6
2016-Jun-14 03:26N 34°21' W 120°41'2020.5
2016-Jun-14 02:28N 34°27' W 121°03'  

Dump ship's entire track history